This is the latest recevied weather packets stored in our database for station/object VK2BNC-13. If no packets are shown the sender has not sent any weather packets the latest 10 day(s).
| Time | Temp. | Humidity | Pressure | Rain* | Wind** | Luminosity | Snow |
|---|---|---|---|---|---|---|---|
| 1777282651 | 17.78° C | 82% | - | 0 mm | - | - | - |
| 1777281752 | 17.78° C | 80% | - | 0 mm | - | - | - |
| 1777280850 | 18.33° C | 79% | - | 0 mm | - | - | - |
| 1777279950 | 18.33° C | 78% | - | 0 mm | - | - | - |
| 1777279050 | 18.89° C | 77% | - | 0 mm | - | - | - |
| 1777278147 | 19.44° C | 75% | - | 0 mm | - | - | - |
| 1777277246 | 19.44° C | 74% | - | 0 mm | - | - | - |
| 1777276347 | 20° C | 72% | - | 0 mm | - | - | - |
| 1777275446 | 20.56° C | 71% | - | 0 mm | - | - | - |
| 1777274546 | 21.11° C | 69% | - | 0 mm | - | - | - |
| 1777273646 | 21.67° C | 67% | - | 0 mm | - | - | - |
| 1777272746 | 21.67° C | 66% | - | 0 mm | - | - | - |
| 1777271846 | 22.22° C | 65% | - | 0 mm | - | - | - |
| 1777270946 | 22.78° C | 63% | - | 0 mm | - | - | - |
| 1777270046 | 23.33° C | 59% | - | 0 mm | - | - | - |
| 1777269147 | 23.89° C | 51% | - | 0 mm | - | - | - |
| 1777268246 | 24.44° C | 50% | - | 0 mm | - | - | - |
| 1777267346 | 23.89° C | 52% | - | 0 mm | - | - | - |
| 1777266446 | 23.89° C | 51% | - | 0 mm | - | - | - |
| 1777265545 | 24.44° C | 49% | - | 0 mm | - | - | - |
| 1777264644 | 23.89° C | 50% | - | 0 mm | - | - | - |
| 1777263744 | 23.89° C | 50% | - | 0 mm | - | - | - |
| 1777262844 | 24.44° C | 49% | - | 0 mm | - | - | - |
| 1777261944 | 24.44° C | 48% | - | 0 mm | - | - | - |
| 1777261043 | 23.89° C | 50% | - | 0 mm | - | - | - |
* Rain latest hour (hover to see other rain measurements)
** Current wind speed in m/s (hover to see current wind gust speed)